createdAt,value
2022-08-30T00:03:23.104Z,86.50
2022-08-30T00:07:15.924Z,86.52
2022-08-30T00:11:12.620Z,86.28
2022-08-30T00:15:07.203Z,86.77
2022-08-30T00:19:02.447Z,87.19
2022-08-30T00:22:55.185Z,87.67
2022-08-30T00:26:47.711Z,87.68
2022-08-30T00:30:41.162Z,87.19
2022-08-30T00:34:34.504Z,86.70
2022-08-30T00:38:27.156Z,86.23
2022-08-30T00:42:21.693Z,85.58
2022-08-30T00:46:14.264Z,85.43
2022-08-30T00:50:08.546Z,85.33
2022-08-30T00:54:01.504Z,85.84
2022-08-30T00:57:59.183Z,85.56
2022-08-30T01:01:53.997Z,86.64
2022-08-30T01:05:49.780Z,86.16
2022-08-30T01:09:42.554Z,86.36
2022-08-30T01:13:35.925Z,86.32
2022-08-30T01:17:29.319Z,85.88
2022-08-30T01:21:32.975Z,85.75
2022-08-30T01:25:29.994Z,86.04
2022-08-30T01:29:23.688Z,86.44
2022-08-30T01:33:16.317Z,86.64
2022-08-30T01:37:08.987Z,86.47
2022-08-30T01:41:13.029Z,86.91
2022-08-30T01:45:06.775Z,87.13
2022-08-30T01:48:59.499Z,87.91
2022-08-30T01:52:52.241Z,88.20
2022-08-30T01:56:45.119Z,87.46
2022-08-30T02:00:38.819Z,87.08
2022-08-30T02:04:31.737Z,86.83
2022-08-30T02:08:24.736Z,86.11
2022-08-30T02:12:20.457Z,86.09
2022-08-30T02:16:16.771Z,86.06
2022-08-30T02:20:11.086Z,86.08
2022-08-30T02:24:04.009Z,86.31
2022-08-30T02:27:56.593Z,86.13
2022-08-30T02:31:49.128Z,86.29
2022-08-30T02:35:41.740Z,86.17
2022-08-30T02:39:34.426Z,86.12
2022-08-30T02:43:27.495Z,86.05
2022-08-30T02:47:20.139Z,85.93
2022-08-30T02:51:14.018Z,85.70
2022-08-30T02:55:07.451Z,86.02
2022-08-30T02:58:59.930Z,86.36
2022-08-30T03:02:52.411Z,86.73
2022-08-30T03:06:44.927Z,86.63
2022-08-30T03:10:38.535Z,87.42
2022-08-30T03:14:32.296Z,87.19
2022-08-30T03:18:25.136Z,87.11
2022-08-30T03:22:18.544Z,87.30
2022-08-30T03:26:13.345Z,87.56
2022-08-30T03:30:07.215Z,88.01
2022-08-30T03:33:59.744Z,87.85
2022-08-30T03:37:56.253Z,87.19
2022-08-30T03:41:49.151Z,87.57
2022-08-30T03:45:42.147Z,88.31
2022-08-30T03:49:35.556Z,88.20
2022-08-30T03:53:28.180Z,87.93
2022-08-30T03:57:24.608Z,88.35
2022-08-30T04:01:17.497Z,88.16
2022-08-30T04:05:11.464Z,88.10
2022-08-30T04:09:06.811Z,88.24
2022-08-30T04:12:59.418Z,87.94
2022-08-30T04:16:51.951Z,87.80
2022-08-30T04:20:44.644Z,87.33
2022-08-30T04:24:38.534Z,87.36
2022-08-30T04:28:31.130Z,87.73
2022-08-30T04:32:23.747Z,87.10
2022-08-30T04:36:16.282Z,87.11
2022-08-30T04:40:09.987Z,86.93
2022-08-30T04:44:03.652Z,86.48
2022-08-30T04:47:56.435Z,85.89
2022-08-30T04:51:49.947Z,85.79
2022-08-30T04:55:44.065Z,85.72
2022-08-30T04:59:38.626Z,85.44
2022-08-30T05:03:31.136Z,85.74
2022-08-30T05:07:23.652Z,85.89
2022-08-30T05:11:17.263Z,86.23
2022-08-30T05:15:12.296Z,85.64
2022-08-30T05:19:05.660Z,85.74
2022-08-30T05:22:58.106Z,85.06
2022-08-30T05:26:50.755Z,84.43
2022-08-30T05:30:43.602Z,81.84
2022-08-30T05:34:36.450Z,81.96
2022-08-30T05:38:29.033Z,80.26
2022-08-30T05:42:21.481Z,80.29
2022-08-30T05:46:19.447Z,80.53
2022-08-30T06:03:29.243Z,82.31
2022-08-30T06:07:22.873Z,82.07
2022-08-30T06:11:19.490Z,81.60
2022-08-30T06:15:12.540Z,82.41
2022-08-30T06:19:06.944Z,82.54
2022-08-30T06:22:59.494Z,80.79
2022-08-30T06:26:52.153Z,76.82
2022-08-30T06:30:44.576Z,75.01
2022-08-30T06:34:36.920Z,74.81
2022-08-30T06:38:29.443Z,73.80
2022-08-30T06:42:22.599Z,74.60
2022-08-30T06:46:18.664Z,71.71
2022-08-30T06:50:12.761Z,68.67
2022-08-30T06:54:06.398Z,69.78
2022-08-30T06:58:04.149Z,70.67
2022-08-30T07:01:57.796Z,68.16
2022-08-30T08:35:40.658Z,62.08
2022-08-30T08:39:33.134Z,63.59
2022-08-30T08:43:27.283Z,64.55
2022-08-30T08:47:29.846Z,62.84
2022-08-30T08:51:45.121Z,62.58
2022-08-30T08:59:38.797Z,61.63
2022-08-30T09:03:31.422Z,61.03
2022-08-30T09:07:28.479Z,58.57
2022-08-30T09:11:27.987Z,59.48
2022-08-30T09:15:26.805Z,57.84
2022-08-30T09:19:46.777Z,60.80
2022-08-30T09:23:50.009Z,60.08
2022-08-30T09:27:45.091Z,60.10
2022-08-30T09:32:01.343Z,57.89
2022-08-30T09:36:45.733Z,56.93
2022-08-30T09:40:44.658Z,55.73
2022-08-30T09:44:38.559Z,57.24
2022-08-30T09:48:45.526Z,56.28
2022-08-30T09:53:00.771Z,57.64
2022-08-30T09:57:16.210Z,58.91
2022-08-30T10:01:08.949Z,57.38
2022-08-30T10:05:23.151Z,58.80
2022-08-30T10:09:21.036Z,58.31
2022-08-30T10:13:52.795Z,59.26
2022-08-30T10:18:00.403Z,58.54
2022-08-30T10:22:02.332Z,58.95
2022-08-30T10:26:11.847Z,59.18
2022-08-30T10:30:11.723Z,59.81
2022-08-30T10:34:10.253Z,60.56
2022-08-30T10:38:29.824Z,59.19
2022-08-30T10:42:26.817Z,59.74
2022-08-30T10:46:29.429Z,60.26
2022-08-30T10:50:29.829Z,59.55
2022-08-30T10:54:37.318Z,58.09
2022-08-30T10:58:31.708Z,58.37
2022-08-30T11:02:51.665Z,58.73
2022-08-30T11:06:56.353Z,57.16
2022-08-30T11:11:28.224Z,57.69
2022-08-30T11:15:30.775Z,58.12
2022-08-30T11:19:26.574Z,58.05
2022-08-30T11:23:39.076Z,57.52
2022-08-30T11:27:52.818Z,56.75
2022-08-30T11:31:47.492Z,57.50
2022-08-30T11:35:49.306Z,57.20
2022-08-30T11:39:47.451Z,57.29
2022-08-30T11:43:44.727Z,56.97
2022-08-30T11:47:50.052Z,56.80
2022-08-30T11:52:28.508Z,56.41
2022-08-30T11:56:28.703Z,55.58
2022-08-30T12:00:40.790Z,56.59
2022-08-30T12:04:44.671Z,55.44
2022-08-30T12:08:49.005Z,55.73
2022-08-30T12:12:47.871Z,54.54
2022-08-30T12:17:07.129Z,53.68
2022-08-30T12:21:08.690Z,54.20
2022-08-30T12:25:02.607Z,54.70
2022-08-30T12:29:15.022Z,55.77
2022-08-30T12:33:14.306Z,54.26
2022-08-30T12:37:25.928Z,54.68
2022-08-30T12:41:21.127Z,53.91
2022-08-30T12:45:17.759Z,54.36
2022-08-30T12:49:13.264Z,53.10
2022-08-30T12:53:14.124Z,53.01
2022-08-30T12:57:32.394Z,52.95
2022-08-30T13:01:33.823Z,54.29
2022-08-30T13:05:45.589Z,54.69
2022-08-30T13:09:44.189Z,54.25
2022-08-30T13:13:52.200Z,54.37
2022-08-30T13:17:46.987Z,54.09
2022-08-30T13:21:58.273Z,54.74
2022-08-30T13:25:51.004Z,54.39
2022-08-30T13:29:43.683Z,55.26
2022-08-30T13:33:36.921Z,54.78
2022-08-30T13:37:50.105Z,54.90
2022-08-30T13:41:44.567Z,55.89
2022-08-30T13:45:41.534Z,54.22
2022-08-30T13:49:44.313Z,54.64
2022-08-30T13:53:54.174Z,55.96
2022-08-30T13:57:56.624Z,54.29
2022-08-30T14:02:07.886Z,54.03
2022-08-30T14:06:29.159Z,53.59
2022-08-30T14:10:31.565Z,54.12
2022-08-30T14:14:41.461Z,53.50
2022-08-30T14:18:36.151Z,53.96
2022-08-30T14:22:29.853Z,52.30
2022-08-30T14:26:27.468Z,54.20
2022-08-30T14:30:25.998Z,53.28
2022-08-30T14:34:19.385Z,53.44
2022-08-30T14:38:12.136Z,52.74
2022-08-30T14:42:07.608Z,51.70
2022-08-30T14:46:02.459Z,52.28
2022-08-30T14:49:59.079Z,50.46
2022-08-30T14:53:53.762Z,51.89
2022-08-30T14:57:46.212Z,51.61
2022-08-30T15:01:40.911Z,50.79
2022-08-30T15:05:33.565Z,50.58
2022-08-30T15:09:26.514Z,51.35
2022-08-30T15:13:19.094Z,49.39
2022-08-30T15:17:13.121Z,49.29
2022-08-30T15:21:05.867Z,50.44
2022-08-30T15:25:01.683Z,50.12
2022-08-30T15:28:55.307Z,49.45
2022-08-30T15:32:47.832Z,48.67
2022-08-30T15:36:43.746Z,49.67
2022-08-30T15:40:36.706Z,49.54
2022-08-30T15:44:32.366Z,49.84
2022-08-30T15:48:27.395Z,49.41
2022-08-30T15:52:19.820Z,48.86
2022-08-30T15:56:12.540Z,49.98
2022-08-30T16:00:07.331Z,50.31
2022-08-30T16:04:00.677Z,49.44
2022-08-30T16:07:53.428Z,50.43
2022-08-30T16:11:45.875Z,50.10
2022-08-30T16:15:44.213Z,50.63
2022-08-30T16:19:37.761Z,51.06
2022-08-30T16:23:30.361Z,50.88
2022-08-30T16:27:26.163Z,50.96
2022-08-30T16:31:19.683Z,50.99
2022-08-30T16:35:12.358Z,50.72
2022-08-30T16:39:08.497Z,50.33
2022-08-30T16:43:01.123Z,50.37
2022-08-30T16:46:56.236Z,51.17
2022-08-30T16:50:48.785Z,51.41
2022-08-30T16:54:41.274Z,51.35
2022-08-30T16:58:34.412Z,51.22
2022-08-30T17:02:26.990Z,51.69
2022-08-30T17:06:20.715Z,51.79
2022-08-30T17:10:13.395Z,52.28
2022-08-30T17:14:05.919Z,52.62
2022-08-30T17:18:00.624Z,52.76
2022-08-30T17:21:52.988Z,53.69
2022-08-30T17:25:45.398Z,54.12
2022-08-30T17:29:38.328Z,54.23
2022-08-30T17:33:30.985Z,55.36
2022-08-30T17:37:23.493Z,55.69
2022-08-30T17:41:15.877Z,56.44
2022-08-30T17:45:09.988Z,56.44
2022-08-30T17:49:02.991Z,56.82
2022-08-30T17:52:56.623Z,56.47
2022-08-30T17:56:49.092Z,57.10
2022-08-30T18:00:41.580Z,57.44
2022-08-30T18:04:34.129Z,58.47
2022-08-30T18:08:26.668Z,59.08
2022-08-30T18:12:19.249Z,59.01
2022-08-30T18:16:11.728Z,59.50
2022-08-30T18:20:07.366Z,59.81
2022-08-30T18:24:00.273Z,59.88
2022-08-30T18:27:58.198Z,60.11
2022-08-30T18:31:51.598Z,60.46
2022-08-30T18:35:48.470Z,60.56
2022-08-30T18:39:41.784Z,61.14
2022-08-30T18:43:34.746Z,60.51
2022-08-30T18:47:27.286Z,61.19
2022-08-30T18:51:21.792Z,60.88
2022-08-30T18:55:14.497Z,61.59
2022-08-30T18:59:08.111Z,61.00
2022-08-30T19:03:02.562Z,62.30
2022-08-30T19:06:55.429Z,62.02
2022-08-30T19:10:48.227Z,62.42
2022-08-30T19:14:41.151Z,61.93
2022-08-30T19:18:34.737Z,62.01
2022-08-30T19:22:39.880Z,62.19
2022-08-30T19:26:42.962Z,61.88
2022-08-30T19:30:39.874Z,62.08
2022-08-30T19:34:32.637Z,63.29
2022-08-30T19:38:26.654Z,67.19
2022-08-30T19:42:19.160Z,69.59
2022-08-30T19:46:14.060Z,70.03
2022-08-30T19:50:07.852Z,69.43
2022-08-30T19:54:01.370Z,69.54
2022-08-30T19:57:53.903Z,69.37
2022-08-30T20:01:46.548Z,68.00
2022-08-30T20:05:39.149Z,68.51
2022-08-30T20:09:31.769Z,68.23
2022-08-30T20:13:24.396Z,67.98
2022-08-30T20:17:17.205Z,68.02
2022-08-30T20:21:13.424Z,68.59
2022-08-30T20:25:07.189Z,69.00
2022-08-30T20:29:03.914Z,69.26
2022-08-30T20:32:57.324Z,68.80
2022-08-30T20:36:49.766Z,68.30
2022-08-30T20:40:42.205Z,68.47
2022-08-30T20:44:34.854Z,68.48
2022-08-30T20:48:28.787Z,67.76
2022-08-30T20:52:21.790Z,68.35
2022-08-30T20:56:17.394Z,69.06
2022-08-30T21:00:13.805Z,69.48
2022-08-30T21:04:06.532Z,69.34
2022-08-30T21:07:59.228Z,69.13
2022-08-30T21:11:53.799Z,69.07
2022-08-30T21:20:00.798Z,68.99
2022-08-30T21:23:58.458Z,69.71
2022-08-30T21:27:50.963Z,69.52
2022-08-30T21:31:43.541Z,69.71
2022-08-30T21:35:55.966Z,69.89
2022-08-30T21:39:49.092Z,70.74
2022-08-30T21:43:41.637Z,71.00
2022-08-30T21:47:34.149Z,71.59
2022-08-30T21:51:28.142Z,71.51
2022-08-30T21:55:20.841Z,71.29
2022-08-30T21:59:13.866Z,71.22
2022-08-30T22:03:07.536Z,70.83
2022-08-30T22:07:00.370Z,70.42
2022-08-30T22:10:52.821Z,70.47
2022-08-30T22:14:45.234Z,71.12
2022-08-30T22:18:39.121Z,71.24
2022-08-30T22:22:31.749Z,71.95
2022-08-30T22:26:25.288Z,72.75
2022-08-30T22:30:18.243Z,71.92
2022-08-30T22:34:11.136Z,72.48
2022-08-30T22:38:03.929Z,72.47
2022-08-30T22:41:56.686Z,72.34
2022-08-30T22:45:49.398Z,73.51
2022-08-30T22:49:42.014Z,75.33
2022-08-30T22:53:34.786Z,78.21
2022-08-30T22:57:27.270Z,78.91
2022-08-30T23:01:23.865Z,78.64
2022-08-30T23:05:17.392Z,76.90
2022-08-30T23:09:11.320Z,75.44
2022-08-30T23:13:04.105Z,76.28
2022-08-30T23:16:56.646Z,74.69
2022-08-30T23:20:49.297Z,74.62
2022-08-30T23:25:01.090Z,73.68
2022-08-30T23:29:12.428Z,73.81
2022-08-30T23:33:23.445Z,73.53
2022-08-30T23:37:35.220Z,73.58
2022-08-30T23:41:46.512Z,72.81
2022-08-30T23:45:57.822Z,72.38
2022-08-30T23:50:08.967Z,73.49
2022-08-30T23:54:22.497Z,73.33
2022-08-30T23:58:33.824Z,73.71
